Time;durP1;ratioP1;P1;durP2;ratioP2;P2;SDS_P1;SDS_P2;PMS_P1;PMS_P2;Temp;Humidity;BMP_temperature;BMP_pressure;BME280_temperature;BME280_humidity;BME280_pressure;Samples;Min_cycle;Max_cycle;Signal;HPM_P1;HPM_P2
2023/10/17 00:01:14;;;;;;;4.68;3.20;;;;;;;8.44;100.00;102131.00;5016626;28;20342;-73
2023/10/17 00:03:40;;;;;;;7.07;2.85;;;;;;;8.46;100.00;102131.88;5016310;28;20034;-73
2023/10/17 00:06:06;;;;;;;5.20;3.30;;;;;;;8.51;100.00;102135.28;5016606;28;20034;-73
2023/10/17 00:08:34;;;;;;;6.28;3.35;;;;;;;8.42;100.00;102131.03;5015963;28;20089;-73
2023/10/17 00:11:07;;;;;;;8.77;3.33;;;;;;;8.55;100.00;102133.50;5016287;28;20372;-73
2023/10/17 00:13:39;;;;;;;7.22;3.22;;;;;;;8.61;100.00;102129.06;5015793;28;20042;-73
2023/10/17 00:16:12;;;;;;;7.95;3.60;;;;;;;8.60;100.00;102127.38;5016656;28;20528;-73
2023/10/17 00:18:38;;;;;;;4.32;3.20;;;;;;;8.58;100.00;102128.25;5015024;28;20091;-73
2023/10/17 00:21:21;;;;;;;6.97;3.25;;;;;;;8.57;100.00;102123.94;5016334;28;20037;-73
2023/10/17 00:23:47;;;;;;;6.60;2.67;;;;;;;8.56;100.00;102123.03;5015491;28;20036;-73
2023/10/17 00:26:14;;;;;;;9.02;3.00;;;;;;;8.57;100.00;102124.78;5016236;28;20109;-73
2023/10/17 00:28:40;;;;;;;5.50;2.63;;;;;;;8.57;100.00;102127.38;5015592;28;20038;-73
2023/10/17 00:31:06;;;;;;;8.07;2.90;;;;;;;8.58;100.00;102115.19;5016187;28;20030;-73
2023/10/17 00:33:37;;;;;;;4.95;2.85;;;;;;;8.54;100.00;102116.13;5015578;28;20026;-73
2023/10/17 00:36:04;;;;;;;4.95;3.03;;;;;;;8.55;100.00;102112.59;5016209;28;20038;-73
2023/10/17 00:38:35;;;;;;;4.75;2.80;;;;;;;8.53;100.00;102099.59;5015713;28;20313;-73
2023/10/17 00:41:05;;;;;;;3.17;2.55;;;;;;;8.52;100.00;102105.69;5016222;28;20044;-73
2023/10/17 00:43:31;;;;;;;4.35;2.70;;;;;;;8.49;100.00;102104.84;5015535;28;20037;-73
2023/10/17 00:45:57;;;;;;;2.95;2.75;;;;;;;8.48;100.00;102105.72;5016178;28;20332;-73
2023/10/17 00:48:26;;;;;;;2.45;2.25;;;;;;;8.49;100.00;102103.09;5016411;28;20038;-73
2023/10/17 00:50:56;;;;;;;;;;;;;;;8.50;100.00;102107.47;5015736;28;20326;-73
2023/10/17 00:53:23;;;;;;;4.47;2.40;;;;;;;8.51;100.00;102106.56;5015982;28;20263;-73
2023/10/17 00:55:55;;;;;;;2.55;2.35;;;;;;;8.52;100.00;102104.84;5015114;28;20259;-73
2023/10/17 00:58:24;;;;;;;5.10;2.38;;;;;;;8.52;100.00;102110.06;5015726;28;20041;-73
2023/10/17 01:04:14;;;;;;;5.90;2.55;;;;;;;8.53;100.00;102098.72;5001392;28;20226;-73
2023/10/17 01:06:40;;;;;;;2.70;2.27;;;;;;;8.57;100.00;102101.28;4997771;28;20146;-73
2023/10/17 01:09:19;;;;;;;6.90;2.80;;;;;;;8.54;100.00;102096.09;4995971;28;20062;-73
2023/10/17 01:11:45;;;;;;;3.63;2.35;;;;;;;8.54;100.00;102098.69;4995119;28;20321;-73
2023/10/17 01:14:18;;;;;;;5.55;2.45;;;;;;;8.56;100.00;102086.47;4995935;28;20188;-73
2023/10/17 01:16:45;;;;;;;5.55;2.45;;;;;;;8.55;100.00;102082.16;4995399;28;20049;-73
2023/10/17 01:19:11;;;;;;;5.57;2.33;;;;;;;8.51;100.00;102074.38;4995724;28;20047;-73
2023/10/17 01:21:37;;;;;;;4.60;2.40;;;;;;;8.50;100.00;102075.28;4995324;28;20038;-73
2023/10/17 01:24:03;;;;;;;4.28;2.42;;;;;;;8.49;100.00;102078.75;4995699;28;20038;-73
2023/10/17 01:26:28;;;;;;;4.07;2.28;;;;;;;8.50;100.00;102068.28;4995099;28;20355;-73
2023/10/17 01:28:54;;;;;;;7.78;2.53;;;;;;;8.50;100.00;102064.81;4995195;28;20022;-73
2023/10/17 01:31:23;;;;;;;3.88;2.10;;;;;;;8.48;100.00;102064.84;4995588;28;20038;-73
2023/10/17 01:33:51;;;;;;;2.08;1.88;;;;;;;8.47;100.00;102067.47;5010030;28;20038;-73
2023/10/17 01:36:17;;;;;;;2.28;2.08;;;;;;;8.47;100.00;102068.31;4995644;28;20045;-73
2023/10/17 01:38:43;;;;;;;2.70;2.20;;;;;;;8.46;100.00;102064.00;4994744;28;20101;-73
2023/10/17 01:41:12;;;;;;;4.93;2.20;;;;;;;8.45;100.00;102062.25;4995249;28;20097;-73
2023/10/17 01:43:45;;;;;;;2.78;2.20;;;;;;;8.42;100.00;102057.94;4994819;28;20042;-73
2023/10/17 01:46:15;;;;;;;4.47;2.30;;;;;;;8.44;100.00;102053.56;4995426;28;20038;-73
2023/10/17 01:48:46;;;;;;;4.53;2.05;;;;;;;8.48;100.00;102048.28;4995071;28;20022;-73
2023/10/17 01:51:15;;;;;;;2.33;2.05;;;;;;;8.48;100.00;102041.34;4995441;28;20033;-73
2023/10/17 01:53:43;;;;;;;3.35;1.77;;;;;;;8.48;100.00;102043.94;4994749;28;20093;-73
2023/10/17 01:56:15;;;;;;;3.50;2.13;;;;;;;8.55;100.00;102044.72;5005554;28;20041;-73
2023/10/17 01:58:49;;;;;;;4.07;2.20;;;;;;;8.53;100.00;102043.88;5014412;28;20033;-73
2023/10/17 02:01:24;;;;;;;5.85;2.40;;;;;;;8.56;100.00;102042.09;5014795;28;20065;-73
2023/10/17 02:03:53;;;;;;;4.68;2.63;;;;;;;8.57;100.00;102037.75;5014676;28;20061;-73
2023/10/17 02:06:21;;;;;;;6.95;2.28;;;;;;;8.55;100.00;102029.94;5013435;28;20044;-73
2023/10/17 02:08:46;;;;;;;3.92;2.13;;;;;;;8.55;100.00;102026.44;5013920;28;20080;-73
2023/10/17 02:11:22;;;;;;;4.88;2.03;;;;;;;8.45;100.00;102028.31;5011439;28;20030;-73
2023/10/17 02:13:48;;;;;;;4.50;2.30;;;;;;;8.48;100.00;102030.91;4994670;28;20093;-73
2023/10/17 02:16:15;;;;;;;3.65;2.20;;;;;;;8.49;100.00;102048.28;4995213;28;20045;-73
2023/10/17 02:18:41;;;;;;;3.63;2.15;;;;;;;8.48;100.00;102040.44;4994783;28;20072;-73
2023/10/17 02:21:06;;;;;;;4.55;2.20;;;;;;;8.49;100.00;102044.81;4995229;28;20313;-73
2023/10/17 02:23:39;;;;;;;6.25;2.40;;;;;;;8.40;100.00;102044.03;4994505;28;20315;-73
2023/10/17 02:26:11;;;;;;;5.57;2.40;;;;;;;8.43;100.00;102050.97;5005075;28;20214;-73
2023/10/17 02:28:46;;;;;;;2.35;1.85;;;;;;;8.38;100.00;102045.75;5014097;28;20029;-73
2023/10/17 02:31:15;;;;;;;2.55;2.10;;;;;;;8.36;100.00;102042.31;5014680;28;20034;-73
2023/10/17 02:33:42;;;;;;;2.83;2.25;;;;;;;8.35;100.00;102042.31;5014208;28;20065;-73
2023/10/17 02:36:13;;;;;;;2.55;2.15;;;;;;;8.33;100.00;102039.75;5014599;28;20033;-73
2023/10/17 02:38:45;;;;;;;5.10;2.20;;;;;;;8.33;100.00;102044.09;5014433;28;20069;-73
2023/10/17 02:41:18;;;;;;;3.50;2.00;;;;;;;8.33;100.00;102046.69;5015332;28;20021;-73
2023/10/17 02:43:45;;;;;;;3.08;2.40;;;;;;;8.33;100.00;102044.09;5017630;28;20044;-73
2023/10/17 02:46:14;;;;;;;4.43;2.10;;;;;;;8.33;100.00;102039.75;5018151;28;20060;-73
2023/10/17 02:48:42;;;;;;;3.95;2.35;;;;;;;8.32;100.00;102039.78;5017537;28;20060;-73
2023/10/17 02:51:31;;;;;;;2.25;2.03;;;;;;;8.31;100.00;102038.03;5017966;28;20119;-73
2023/10/17 02:53:58;;;;;;;3.10;1.90;;;;;;;8.32;100.00;102040.63;5018227;28;20033;-73
2023/10/17 02:56:25;;;;;;;5.38;2.40;;;;;;;8.32;100.00;102037.16;5013133;28;20237;-72
2023/10/17 02:59:07;;;;;;;6.00;2.40;;;;;;;8.35;100.00;102029.28;4998161;28;20344;-74
2023/10/17 03:01:37;;;;;;;5.35;2.33;;;;;;;8.31;100.00;102038.88;4997796;28;20261;-72
2023/10/17 03:04:14;;;;;;;2.47;1.92;;;;;;;8.32;100.00;102026.72;4998246;28;20219;-72
2023/10/17 03:06:41;;;;;;;3.05;2.45;;;;;;;8.33;100.00;102031.94;4997854;28;20065;-72
2023/10/17 03:12:29;;;;;;;3.70;2.00;;;;;;;8.37;100.00;102037.97;4997471;28;20072;-72
2023/10/17 03:17:10;;;;;;;4.25;2.20;;;;;;;8.32;100.00;102031.94;4998034;28;20034;-73
2023/10/17 03:19:37;;;;;;;4.13;2.30;;;;;;;8.26;100.00;102033.75;4997610;28;20126;-73
2023/10/17 03:22:16;;;;;;;6.68;2.03;;;;;;;8.29;100.00;102034.56;4998125;28;20085;-73
2023/10/17 03:25:01;;;;;;;2.03;1.83;;;;;;;8.29;100.00;102035.44;4997760;28;20072;-73
2023/10/17 03:27:35;;;;;;;4.10;2.00;;;;;;;8.29;100.00;102038.03;4997142;28;20042;-73
2023/10/17 03:30:05;;;;;;;2.05;1.88;;;;;;;8.35;100.00;102034.50;4998133;28;20363;-73
2023/10/17 03:32:33;;;;;;;3.53;2.03;;;;;;;8.38;100.00;102031.84;4997052;28;20030;-73
2023/10/17 03:34:59;;;;;;;2.78;1.70;;;;;;;8.42;100.00;102024.00;4997662;28;20391;-73
2023/10/17 03:39:52;;;;;;;4.85;2.38;;;;;;;8.36;100.00;102024.03;4997199;28;20076;-73
2023/10/17 03:45:13;;;;;;;3.67;2.00;;;;;;;8.43;100.00;102036.16;4997835;28;20412;-73
2023/10/17 03:48:13;;;;;;;3.55;1.90;;;;;;;8.34;100.00;102038.00;4996889;28;20105;-73
2023/10/17 03:53:16;;;;;;;5.05;2.15;;;;;;;8.33;100.00;102052.81;4997305;28;20319;-73
2023/10/17 03:55:43;;;;;;;4.43;2.00;;;;;;;8.34;100.00;102051.91;5003733;28;20038;-73
2023/10/17 03:58:25;;;;;;;3.72;1.83;;;;;;;8.35;100.00;102060.59;5016932;28;20049;-73
2023/10/17 04:00:55;;;;;;;7.07;2.17;;;;;;;8.40;100.00;102053.56;5016759;28;20104;-73
2023/10/17 04:03:22;;;;;;;3.35;2.30;;;;;;;8.44;100.00;102057.91;5017293;28;20411;-72
2023/10/17 04:05:49;;;;;;;10.70;2.97;;;;;;;8.40;100.00;102061.41;5016016;28;20030;-73
2023/10/17 04:08:18;;;;;;;3.65;1.95;;;;;;;8.42;100.00;102062.28;5016336;28;20158;-73
2023/10/17 04:11:08;;;;;;;2.78;1.70;;;;;;;8.40;100.00;102064.91;5015790;28;20202;-72
2023/10/17 04:13:34;;;;;;;3.25;1.90;;;;;;;8.30;100.00;102058.06;5015998;28;20072;-72
2023/10/17 04:16:08;;;;;;;3.97;1.75;;;;;;;8.26;100.00;102049.41;5016258;28;20029;-72
2023/10/17 04:18:37;;;;;;;7.25;1.95;;;;;;;8.26;100.00;102045.94;5015743;28;20036;-72
2023/10/17 04:21:16;;;;;;;;;;;;;;;8.31;100.00;102049.31;5016997;28;20049;-73
2023/10/17 04:23:42;;;;;;;;;;;;;;;8.30;100.00;102049.38;5016397;28;19940;-73
2023/10/17 04:26:17;;;;;;;8.05;2.28;;;;;;;8.33;100.00;102049.31;5016350;28;19917;-73
2023/10/17 04:28:48;;;;;;;4.63;1.80;;;;;;;8.28;100.00;102046.78;5015558;28;20289;-73
2023/10/17 04:31:14;;;;;;;2.70;1.90;;;;;;;8.28;100.00;102057.22;5016026;28;20037;-73
2023/10/17 04:33:41;;;;;;;2.17;1.95;;;;;;;8.30;100.00;102059.81;5016053;28;20343;-73
2023/10/17 04:36:07;;;;;;;4.72;2.30;;;;;;;8.29;100.00;102052.84;5016023;28;20249;-73
2023/10/17 04:46:16;;;;;;;5.63;2.33;;;;;;;8.33;100.00;102038.88;5015811;28;20042;-73
2023/10/17 04:48:46;;;;;;;3.22;2.05;;;;;;;8.28;100.00;102036.34;5015271;28;20041;-73
2023/10/17 04:51:19;;;;;;;4.80;2.20;;;;;;;8.27;100.00;102038.06;5016031;28;20294;-72
2023/10/17 04:53:48;;;;;;;4.43;2.38;;;;;;;8.30;100.00;102038.94;5015371;28;20209;-72
2023/10/17 04:56:18;;;;;;;;;;;;;;;8.24;100.00;102035.50;5016197;28;20026;-73
2023/10/17 05:04:31;;;;;;;3.00;2.30;;;;;;;8.18;100.00;102043.38;4953987;28;20043;-73
2023/10/17 06:17:47;;;;;;;7.85;3.72;;;;;;;7.89;100.00;102015.00;5017850;28;20225;-72
2023/10/17 06:20:13;;;;;;;10.50;4.05;;;;;;;7.82;100.00;102011.63;5018849;28;20339;-72
2023/10/17 06:31:34;;;;;;;5.80;3.83;;;;;;;7.83;100.00;102009.88;5017917;28;20038;-73
2023/10/17 06:33:35;;;;;;;6.60;3.60;;;;;;;7.85;100.00;102018.53;5017917;28;20053;-72
2023/10/17 06:36:13;;;;;;;7.97;3.35;;;;;;;7.80;100.00;102012.50;5018612;28;20392;-72
2023/10/17 06:38:46;;;;;;;3.72;3.08;;;;;;;7.78;100.00;102019.47;5017930;28;20038;-72
2023/10/17 06:41:14;;;;;;;4.38;2.75;;;;;;;7.80;100.00;102025.53;5011088;28;20073;-72
2023/10/17 06:43:46;;;;;;;4.30;3.15;;;;;;;7.77;100.00;102029.06;5014926;28;20046;-72
2023/10/17 06:46:13;;;;;;;7.95;3.38;;;;;;;7.72;100.00;102048.25;5017628;28;20065;-73
2023/10/17 06:48:48;;;;;;;5.82;3.15;;;;;;;7.68;100.00;102039.59;5015862;28;20042;-72
2023/10/17 06:51:29;;;;;;;5.15;3.08;;;;;;;7.71;100.00;102036.91;5017225;28;20383;-73
2023/10/17 06:53:57;;;;;;;6.78;3.13;;;;;;;7.73;100.00;102031.69;5015128;28;20037;-73
2023/10/17 06:56:25;;;;;;;3.72;2.90;;;;;;;7.71;100.00;102034.31;5013908;28;20056;-73
2023/10/17 06:58:50;;;;;;;5.07;3.05;;;;;;;7.73;100.00;102029.97;5014400;28;20045;-72
2023/10/17 07:01:24;;;;;;;5.20;2.90;;;;;;;7.75;100.00;102035.16;5008463;28;20034;-72
2023/10/17 07:03:54;;;;;;;9.85;2.88;;;;;;;7.73;100.00;102035.19;5005634;28;20041;-72
2023/10/17 07:06:23;;;;;;;5.35;2.75;;;;;;;7.73;100.00;102032.59;5009999;28;20038;-72
2023/10/17 07:08:50;;;;;;;2.47;2.30;;;;;;;7.65;100.00;102035.25;5011749;28;20360;-73
2023/10/17 07:24:33;;;;;;;4.75;2.42;;;;;;;7.74;100.00;102033.44;5016301;28;20062;-72
2023/10/17 07:27:01;;;;;;;5.90;2.60;;;;;;;7.76;100.00;102040.34;5016057;28;20065;-72
2023/10/17 07:29:26;;;;;;;7.35;3.13;;;;;;;7.79;100.00;102024.69;5015442;28;20410;-72
2023/10/17 07:31:54;;;;;;;2.80;2.50;;;;;;;7.82;100.00;102029.00;5017184;28;20368;-72
2023/10/17 07:34:23;;;;;;;3.22;2.90;;;;;;;7.81;100.00;102029.91;5009655;28;20041;-72
2023/10/17 07:36:58;;;;;;;4.63;2.78;;;;;;;7.88;100.00;102032.41;5015801;28;20113;-72
2023/10/17 07:39:36;;;;;;;4.80;3.05;;;;;;;7.97;100.00;102025.38;5004767;28;20116;-72
2023/10/17 07:42:02;;;;;;;3.95;3.63;;;;;;;7.98;100.00;102029.72;5012398;28;20038;-72
2023/10/17 07:44:27;;;;;;;7.25;4.10;;;;;;;7.98;100.00;102024.50;5009665;28;20037;-72
2023/10/17 07:49:36;;;;;;;5.45;4.55;;;;;;;7.98;100.00;102019.28;5004945;28;20376;-72
2023/10/17 07:52:17;;;;;;;8.57;5.60;;;;;;;8.03;100.00;102013.13;5013569;28;20045;-72
2023/10/17 07:54:55;;;;;;;5.75;5.13;;;;;;;8.03;100.00;102007.91;5009908;28;20039;-72
2023/10/17 07:57:36;;;;;;;5.70;5.03;;;;;;;8.12;100.00;102009.53;5007097;28;20093;-72
2023/10/17 08:02:48;;;;;;;13.00;5.68;;;;;;;8.22;100.00;102016.41;5006794;28;20138;-73
2023/10/17 08:05:17;;;;;;;7.13;5.75;;;;;;;8.20;100.00;102014.66;5009687;28;20042;-73
2023/10/17 08:07:43;;;;;;;8.13;6.18;;;;;;;8.22;100.00;102021.63;5001301;28;20108;-73
2023/10/17 08:10:11;;;;;;;11.35;5.20;;;;;;;8.24;100.00;102025.06;5002384;28;20038;-73
2023/10/17 08:12:38;;;;;;;9.10;5.70;;;;;;;8.24;100.00;102013.75;5008035;28;20026;-73
2023/10/17 08:15:19;;;;;;;7.50;5.53;;;;;;;8.30;100.00;102023.28;5014348;28;20336;-73
2023/10/17 08:17:44;;;;;;;10.32;6.05;;;;;;;8.37;100.00;102022.31;5007277;28;20026;-73
2023/10/17 08:20:45;;;;;;;6.47;5.88;;;;;;;8.38;100.00;102010.97;5014687;28;20076;-73
2023/10/17 08:22:58;;;;;;;7.15;5.38;;;;;;;8.42;100.00;102016.19;5014715;28;20367;-73
2023/10/17 08:25:30;;;;;;;6.63;5.93;;;;;;;8.40;100.00;102015.31;5014501;28;20225;-73
2023/10/17 08:28:03;;;;;;;6.80;6.10;;;;;;;8.48;100.00;102020.47;5014692;28;20029;-73
2023/10/17 08:30:34;;;;;;;7.68;6.07;;;;;;;8.45;100.00;102016.13;5014254;28;20042;-73
2023/10/17 08:35:40;;;;;;;6.50;5.85;;;;;;;8.51;100.00;102020.38;5005749;28;20304;-73
2023/10/17 08:38:06;;;;;;;7.55;6.20;;;;;;;8.51;100.00;102025.63;5013482;28;20424;-73
2023/10/17 08:40:40;;;;;;;9.90;6.45;;;;;;;8.52;100.00;102027.34;5011136;28;20045;-73
2023/10/17 08:43:16;;;;;;;9.43;6.00;;;;;;;8.61;100.00;102029.00;5013574;28;20042;-73
2023/10/17 08:45:46;;;;;;;11.98;6.47;;;;;;;8.66;100.00;102032.41;5013240;28;20380;-73
2023/10/17 08:48:11;;;;;;;8.50;6.05;;;;;;;8.69;100.00;102028.88;5013448;28;20087;-73
2023/10/17 08:50:38;;;;;;;7.68;6.75;;;;;;;8.62;100.00;102028.97;5014721;28;20045;-73
2023/10/17 08:53:19;;;;;;;7.85;6.15;;;;;;;8.71;100.00;102033.19;5014340;28;20038;-73
2023/10/17 08:55:48;;;;;;;10.75;7.07;;;;;;;8.65;100.00;102038.50;5012777;28;20388;-73
2023/10/17 08:58:15;;;;;;;16.17;6.85;;;;;;;8.71;100.00;102043.63;5014182;28;20030;-73
2023/10/17 09:03:41;;;;;;;12.18;7.57;;;;;;;8.82;100.00;102038.25;5014708;28;20064;-73
2023/10/17 09:11:41;;;;;;;17.95;8.95;;;;;;;8.96;100.00;102040.69;5013619;28;20044;-73
2023/10/17 09:14:26;;;;;;;13.15;8.30;;;;;;;8.98;100.00;102037.16;5013228;28;20037;-73
2023/10/17 09:17:13;;;;;;;13.40;8.40;;;;;;;9.03;100.00;102035.34;5007787;28;20029;-73
2023/10/17 09:19:46;;;;;;;13.82;8.73;;;;;;;9.07;100.00;102033.53;5005630;28;20037;-73
2023/10/17 09:22:15;;;;;;;15.85;9.02;;;;;;;9.14;99.96;102026.47;5013523;28;20267;-73
2023/10/17 09:24:45;;;;;;;13.80;8.65;;;;;;;9.15;98.95;102028.19;5013020;28;20344;-73
2023/10/17 09:27:14;;;;;;;9.50;8.48;;;;;;;9.20;99.25;102022.03;5013070;28;20100;-73
2023/10/17 09:29:47;;;;;;;22.38;9.02;;;;;;;9.25;99.35;102026.31;5013080;28;20399;-73
2023/10/17 09:32:32;;;;;;;12.20;8.52;;;;;;;9.25;98.51;102021.09;5013831;28;20400;-73
2023/10/17 09:35:02;;;;;;;15.70;9.20;;;;;;;9.33;98.28;102022.69;5014458;28;20232;-73
2023/10/17 09:37:28;;;;;;;14.50;8.73;;;;;;;9.38;98.24;102020.84;5013665;28;20034;-73
2023/10/17 09:39:56;;;;;;;14.15;8.60;;;;;;;9.48;98.04;102021.56;5014223;28;20215;-73
2023/10/17 09:42:21;;;;;;;12.98;8.48;;;;;;;9.47;96.30;102027.66;5013636;28;20454;-73
2023/10/17 09:44:46;;;;;;;9.07;7.97;;;;;;;9.51;96.20;102028.47;5013648;28;20218;-73
2023/10/17 09:47:16;;;;;;;20.60;8.18;;;;;;;9.53;96.05;102024.06;5013804;28;20417;-73
2023/10/17 09:49:48;;;;;;;9.80;7.75;;;;;;;9.58;95.19;102025.72;5013483;28;20116;-73
2023/10/17 09:52:14;;;;;;;10.95;8.05;;;;;;;9.63;95.40;102023.03;5013824;28;20076;-73
2023/10/17 09:54:41;;;;;;;12.30;7.53;;;;;;;9.66;95.90;102016.88;5014073;28;20022;-73
2023/10/17 09:57:13;;;;;;;13.30;7.75;;;;;;;9.74;96.45;102020.22;5014024;28;20185;-73
2023/10/17 09:59:45;;;;;;;9.98;7.57;;;;;;;9.83;96.46;102020.06;5013750;28;20056;-73
2023/10/17 10:02:13;;;;;;;7.47;6.75;;;;;;;9.85;95.30;102017.41;5013779;28;20034;-73
2023/10/17 10:04:39;;;;;;;9.48;6.78;;;;;;;9.86;95.24;102013.91;5013333;28;20057;-73
2023/10/17 10:07:26;;;;;;;12.35;6.72;;;;;;;9.89;94.29;102008.59;5012129;28;20057;-73
2023/10/17 10:09:51;;;;;;;9.68;7.10;;;;;;;9.97;94.45;102006.72;5013265;28;20042;-73
2023/10/17 10:12:17;;;;;;;8.30;6.50;;;;;;;10.04;93.72;102016.19;5012056;28;20041;-73
2023/10/17 10:14:43;;;;;;;7.55;6.50;;;;;;;10.05;93.04;102006.56;5013411;28;20033;-73
2023/10/17 10:17:16;;;;;;;7.07;6.00;;;;;;;10.07;93.81;101996.94;5014001;28;20026;-73
2023/10/17 10:19:41;;;;;;;10.52;5.57;;;;;;;10.12;92.59;101988.09;5013414;28;20029;-73
2023/10/17 10:22:10;;;;;;;11.85;5.55;;;;;;;10.16;92.01;101988.88;5013959;28;20041;-73
2023/10/17 10:24:36;;;;;;;7.78;5.53;;;;;;;10.22;91.99;101993.13;5013601;28;20050;-73
2023/10/17 10:27:24;;;;;;;8.57;5.78;;;;;;;10.20;90.97;101998.38;5013603;28;20305;-73
2023/10/17 10:29:55;;;;;;;12.50;5.18;;;;;;;10.22;90.66;101996.59;5013414;28;20033;-73
2023/10/17 10:32:37;;;;;;;10.48;4.68;;;;;;;10.26;90.07;102000.91;5013825;28;20029;-73
2023/10/17 10:35:05;;;;;;;6.90;4.50;;;;;;;10.32;90.37;102010.41;5011346;28;20233;-73
2023/10/17 10:37:53;;;;;;;7.40;4.80;;;;;;;10.32;89.96;102005.19;5010694;28;20040;-73
2023/10/17 10:40:22;;;;;;;6.63;4.03;;;;;;;10.38;88.50;101998.03;5011459;28;20097;-73
2023/10/17 10:42:48;;;;;;;;;;;;;;;10.43;88.08;101991.84;5011468;28;20041;-73
2023/10/17 10:45:29;;;;;;;4.35;3.72;;;;;;;10.46;88.49;101984.78;4994015;28;19914;-73
2023/10/17 10:47:58;;;;;;;5.22;4.03;;;;;;;10.50;88.36;101981.22;5011154;28;20053;-73
2023/10/17 10:50:27;;;;;;;4.50;3.97;;;;;;;10.48;87.33;101980.38;5011487;28;20307;-73
2023/10/17 10:52:53;;;;;;;8.80;3.53;;;;;;;10.48;86.92;101975.16;5011443;28;20049;-73
2023/10/17 10:55:19;;;;;;;3.67;3.03;;;;;;;10.52;87.53;101981.19;5011181;28;20098;-73
2023/10/17 10:57:46;;;;;;;3.53;3.22;;;;;;;10.59;87.25;101980.16;5010404;28;20268;-73
2023/10/17 11:00:15;;;;;;;3.80;3.45;;;;;;;10.59;87.05;101977.53;5010896;28;20062;-73
2023/10/17 11:02:42;;;;;;;6.63;3.58;;;;;;;10.61;87.70;101967.00;5012692;28;20026;-73
2023/10/17 11:05:12;;;;;;;3.42;3.10;;;;;;;10.65;86.36;101964.28;5015189;28;20038;-73
2023/10/17 11:07:38;;;;;;;7.00;3.30;;;;;;;10.66;85.03;101965.13;5014485;28;20374;-73
2023/10/17 11:10:10;;;;;;;5.93;3.40;;;;;;;10.69;83.81;101960.69;5014832;28;20073;-73
2023/10/17 11:12:36;;;;;;;3.88;3.25;;;;;;;10.67;84.48;101959.84;5006218;28;20037;-73
2023/10/17 11:15:16;;;;;;;5.85;3.15;;;;;;;10.67;84.42;101959.00;5014996;28;20068;-73
2023/10/17 11:17:42;;;;;;;6.78;3.60;;;;;;;10.71;85.24;101958.91;5014313;28;20041;-73
2023/10/17 11:20:14;;;;;;;4.53;3.40;;;;;;;10.72;84.16;101959.75;5014789;28;20379;-73
2023/10/17 11:22:41;;;;;;;5.50;3.30;;;;;;;10.72;84.36;101951.91;5013937;28;20044;-73
2023/10/17 11:25:10;;;;;;;11.20;3.83;;;;;;;10.73;84.61;101948.38;5014401;28;20037;-73
2023/10/17 11:27:39;;;;;;;4.32;3.22;;;;;;;10.78;85.73;101940.41;5005924;28;20314;-73
2023/10/17 11:30:06;;;;;;;7.28;3.58;;;;;;;10.80;86.48;101936.84;5014589;28;20053;-74
2023/10/17 11:32:39;;;;;;;7.97;3.75;;;;;;;10.85;84.87;101924.50;5013451;28;20069;-73
2023/10/17 11:35:11;;;;;;;5.57;2.70;;;;;;;10.91;84.53;101921.75;5013955;28;20053;-74
2023/10/17 11:37:45;;;;;;;8.57;3.47;;;;;;;10.94;83.94;101926.03;5013903;28;20036;-74
2023/10/17 11:40:29;;;;;;;9.18;3.83;;;;;;;11.00;84.22;101925.88;5014583;28;20097;-73
2023/10/17 11:42:55;;;;;;;4.57;3.00;;;;;;;11.03;83.89;101930.19;5014885;28;20061;-73
2023/10/17 11:45:25;;;;;;;2.80;2.60;;;;;;;11.05;82.21;101931.00;5014914;28;20349;-74
2023/10/17 11:47:50;;;;;;;3.28;2.60;;;;;;;11.05;82.50;101916.13;5014381;28;20109;-73
2023/10/17 11:50:31;;;;;;;4.32;3.00;;;;;;;11.09;83.25;101916.91;5014702;28;20115;-73
2023/10/17 11:53:09;;;;;;;2.65;2.42;;;;;;;11.10;82.47;101906.41;5014851;28;20297;-73
2023/10/17 11:55:45;;;;;;;4.45;3.20;;;;;;;11.02;83.35;101905.72;5014296;28;20236;-73
2023/10/17 11:58:20;;;;;;;3.45;2.67;;;;;;;11.01;82.89;101893.53;5013423;28;20030;-73
2023/10/17 12:00:45;;;;;;;2.60;2.40;;;;;;;11.01;83.82;101896.16;5014226;28;20237;-73
2023/10/17 12:03:11;;;;;;;6.90;2.63;;;;;;;11.08;82.39;101896.88;5014198;28;20064;-73
2023/10/17 12:05:39;;;;;;;5.57;3.20;;;;;;;11.12;81.40;101891.47;5014298;28;20042;-73
2023/10/17 12:08:05;;;;;;;5.13;3.00;;;;;;;11.15;81.55;101885.28;5014339;28;20134;-73
2023/10/17 12:10:36;;;;;;;3.20;2.95;;;;;;;11.21;81.37;101874.66;5013817;28;20052;-73
2023/10/17 12:13:06;;;;;;;3.85;3.45;;;;;;;11.20;80.59;101875.53;5014509;28;20092;-74
2023/10/17 12:15:31;;;;;;;6.57;3.42;;;;;;;11.19;79.70;101876.47;5014185;28;20402;-73
2023/10/17 12:17:57;;;;;;;5.35;2.70;;;;;;;11.13;78.41;101864.38;5014342;28;20030;-73
2023/10/17 12:20:25;;;;;;;3.53;2.45;;;;;;;11.20;79.59;101864.19;5014762;28;20067;-74
2023/10/17 12:22:55;;;;;;;5.22;3.47;;;;;;;11.25;79.09;101860.56;5013160;28;20029;-73
2023/10/17 12:25:23;;;;;;;4.35;3.00;;;;;;;11.28;79.18;101846.53;5015521;28;20048;-73
2023/10/17 12:27:49;;;;;;;3.40;3.10;;;;;;;11.27;78.49;101848.25;5013354;28;20089;-74
2023/10/17 12:30:22;;;;;;;3.25;3.03;;;;;;;11.24;77.38;101845.75;5014230;28;20280;-73
2023/10/17 12:32:47;;;;;;;4.60;2.70;;;;;;;11.26;76.50;101840.44;5013492;28;20030;-73
2023/10/17 12:35:16;;;;;;;2.80;2.25;;;;;;;11.26;76.77;101837.81;5013996;28;20033;-74
2023/10/17 12:37:45;;;;;;;3.15;2.63;;;;;;;11.28;76.87;101836.03;5013212;28;20033;-73
2023/10/17 12:40:21;;;;;;;2.88;2.67;;;;;;;11.27;77.13;101829.91;4996892;28;20045;-73
2023/10/17 12:42:47;;;;;;;2.60;2.40;;;;;;;11.21;77.10;101834.47;5001399;28;20294;-74
2023/10/17 12:45:17;;;;;;;2.80;2.53;;;;;;;11.21;77.91;101834.47;4984075;28;20330;-73
2023/10/17 12:47:43;;;;;;;3.75;2.47;;;;;;;11.22;78.59;101831.78;5006584;28;20052;-73
2023/10/17 12:50:11;;;;;;;3.95;2.58;;;;;;;11.30;78.69;101837.69;5007782;28;20018;-74
2023/10/17 12:52:37;;;;;;;6.65;3.20;;;;;;;11.31;78.36;101830.69;5007718;28;20060;-73
2023/10/17 12:55:03;;;;;;;4.15;3.30;;;;;;;11.30;78.88;101827.19;5006954;28;20049;-73
2023/10/17 12:57:29;;;;;;;7.10;2.70;;;;;;;11.28;77.28;101810.66;5006631;28;20229;-73
2023/10/17 12:59:57;;;;;;;3.33;2.45;;;;;;;11.32;77.72;101811.44;5010205;28;20030;-74
2023/10/17 13:02:24;;;;;;;4.25;2.50;;;;;;;11.29;77.11;101809.72;5005875;28;20034;-73
2023/10/17 13:04:49;;;;;;;7.43;3.55;;;;;;;11.27;77.90;101811.53;5003392;28;20309;-73
2023/10/17 13:07:15;;;;;;;4.25;2.95;;;;;;;11.31;78.93;101807.06;5000800;28;20026;-73
2023/10/17 13:09:41;;;;;;;4.10;3.60;;;;;;;11.35;79.29;101803.47;5003142;28;20303;-73
2023/10/17 13:12:07;;;;;;;6.78;2.95;;;;;;;11.29;79.06;101796.63;5004398;28;20337;-73
2023/10/17 13:14:32;;;;;;;4.25;3.38;;;;;;;11.31;79.52;101802.72;5001954;28;20121;-74
2023/10/17 13:16:58;;;;;;;4.50;3.10;;;;;;;11.37;78.33;101801.69;5005417;28;20575;-74
2023/10/17 13:19:23;;;;;;;3.50;3.20;;;;;;;11.35;78.96;101800.84;5007678;28;20060;-73
2023/10/17 13:21:49;;;;;;;3.22;3.03;;;;;;;11.36;79.26;101796.47;5005878;28;20049;-73
2023/10/17 13:24:15;;;;;;;5.50;3.13;;;;;;;11.40;79.16;101790.22;5005074;28;20061;-74
2023/10/17 13:26:41;;;;;;;3.60;3.30;;;;;;;11.37;78.86;101779.81;5007184;28;20064;-74
2023/10/17 13:29:06;;;;;;;3.22;2.92;;;;;;;11.36;79.84;101783.34;5007717;28;20038;-74
2023/10/17 13:31:33;;;;;;;5.82;3.60;;;;;;;11.39;80.18;101778.00;4999824;28;20091;-73
2023/10/17 13:33:58;;;;;;;6.40;3.53;;;;;;;11.44;79.26;101773.47;5008663;28;20030;-73
2023/10/17 13:36:24;;;;;;;4.20;3.85;;;;;;;11.43;78.95;101777.88;5008113;28;20041;-74
2023/10/17 13:38:50;;;;;;;4.20;3.83;;;;;;;11.46;79.18;101777.78;5006933;28;20037;-73
2023/10/17 13:41:15;;;;;;;9.20;4.85;;;;;;;11.45;77.67;101772.59;5006380;28;20416;-74
2023/10/17 13:43:42;;;;;;;4.13;3.78;;;;;;;11.39;79.11;101778.88;5007605;28;20335;-73
2023/10/17 13:46:16;;;;;;;5.78;4.03;;;;;;;11.43;79.12;101774.41;5006635;28;20565;-73
2023/10/17 13:48:51;;;;;;;4.45;4.03;;;;;;;11.36;79.37;101772.88;5007108;28;20337;-74
2023/10/17 13:51:18;;;;;;;6.60;3.78;;;;;;;11.39;79.35;101763.16;5006251;28;20300;-74
2023/10/17 13:53:44;;;;;;;5.65;3.90;;;;;;;11.40;78.78;101764.84;5007970;28;20044;-73
2023/10/17 13:56:14;;;;;;;6.28;3.40;;;;;;;11.43;78.77;101759.53;5009977;28;20029;-73
2023/10/17 13:58:41;;;;;;;3.50;3.20;;;;;;;11.42;77.70;101764.81;5007635;28;20041;-73